sensor_id;sensor_type;location;lat;lon;timestamp;pressure;altitude;pressure_sealevel;temperature;humidity
31239;BME280;17871;31.584;74.450;2023-07-08T00:01:08;97544.50;;;30.25;100.00
31239;BME280;17871;31.584;74.450;2023-07-08T00:03:42;97540.53;;;30.10;100.00
31239;BME280;17871;31.584;74.450;2023-07-08T00:06:20;97546.56;;;30.22;100.00
31239;BME280;17871;31.584;74.450;2023-07-08T00:08:52;97547.69;;;30.19;100.00
31239;BME280;17871;31.584;74.450;2023-07-08T00:11:23;97557.13;;;30.22;100.00
31239;BME280;17871;31.584;74.450;2023-07-08T00:13:54;97554.06;;;30.26;100.00
31239;BME280;17871;31.584;74.450;2023-07-08T00:16:25;97546.72;;;30.30;100.00
31239;BME280;17871;31.584;74.450;2023-07-08T00:18:55;97548.25;;;30.23;100.00
31239;BME280;17871;31.584;74.450;2023-07-08T00:21:26;97561.44;;;30.23;100.00
31239;BME280;17871;31.584;74.450;2023-07-08T00:23:57;97571.44;;;30.29;100.00
31239;BME280;17871;31.584;74.450;2023-07-08T00:26:30;97585.06;;;30.34;100.00
31239;BME280;17871;31.584;74.450;2023-07-08T00:29:01;97575.31;;;30.25;100.00
31239;BME280;17871;31.584;74.450;2023-07-08T00:31:32;97567.97;;;30.28;100.00
31239;BME280;17871;31.584;74.450;2023-07-08T00:34:04;97555.63;;;30.29;100.00
31239;BME280;17871;31.584;74.450;2023-07-08T00:36:34;97548.41;;;30.31;100.00
31239;BME280;17871;31.584;74.450;2023-07-08T00:39:13;97563.13;;;30.33;100.00
31239;BME280;17871;31.584;74.450;2023-07-08T00:41:44;97588.34;;;30.26;100.00
31239;BME280;17871;31.584;74.450;2023-07-08T00:44:16;97611.22;;;30.16;100.00
31239;BME280;17871;31.584;74.450;2023-07-08T00:49:46;97595.81;;;29.48;100.00
31239;BME280;17871;31.584;74.450;2023-07-08T00:52:28;97591.38;;;29.17;100.00
31239;BME280;17871;31.584;74.450;2023-07-08T00:55:01;97575.13;;;29.01;100.00
31239;BME280;17871;31.584;74.450;2023-07-08T00:57:39;97568.91;;;29.02;100.00
31239;BME280;17871;31.584;74.450;2023-07-08T01:00:14;97576.59;;;28.94;100.00
31239;BME280;17871;31.584;74.450;2023-07-08T01:02:52;97586.63;;;28.89;100.00
31239;BME280;17871;31.584;74.450;2023-07-08T01:05:27;97603.94;;;29.02;100.00
31239;BME280;17871;31.584;74.450;2023-07-08T01:08:02;97603.78;;;29.15;100.00
31239;BME280;17871;31.584;74.450;2023-07-08T01:10:43;97593.00;;;29.18;100.00
31239;BME280;17871;31.584;74.450;2023-07-08T01:13:16;97592.19;;;29.17;100.00
31239;BME280;17871;31.584;74.450;2023-07-08T01:15:48;97597.13;;;29.11;100.00
31239;BME280;17871;31.584;74.450;2023-07-08T01:18:20;97598.78;;;29.12;100.00
31239;BME280;17871;31.584;74.450;2023-07-08T01:20:51;97600.34;;;29.14;100.00
31239;BME280;17871;31.584;74.450;2023-07-08T01:23:26;97604.63;;;29.15;100.00
31239;BME280;17871;31.584;74.450;2023-07-08T01:25:57;97610.84;;;29.25;100.00
31239;BME280;17871;31.584;74.450;2023-07-08T01:28:29;97608.06;;;29.38;100.00
31239;BME280;17871;31.584;74.450;2023-07-08T01:31:00;97611.44;;;29.29;100.00
31239;BME280;17871;31.584;74.450;2023-07-08T01:33:34;97627.00;;;29.21;100.00
31239;BME280;17871;31.584;74.450;2023-07-08T01:36:07;97644.44;;;29.22;100.00
31239;BME280;17871;31.584;74.450;2023-07-08T01:38:39;97676.66;;;29.14;100.00
31239;BME280;17871;31.584;74.450;2023-07-08T01:41:15;97679.06;;;29.06;100.00
31239;BME280;17871;31.584;74.450;2023-07-08T01:43:46;97670.81;;;28.89;100.00
31239;BME280;17871;31.584;74.450;2023-07-08T01:46:23;97677.50;;;29.04;100.00
31239;BME280;17871;31.584;74.450;2023-07-08T01:49:00;97680.38;;;28.90;100.00
31239;BME280;17871;31.584;74.450;2023-07-08T01:51:32;97685.34;;;28.48;100.00
31239;BME280;17871;31.584;74.450;2023-07-08T01:54:03;97684.13;;;28.30;100.00
31239;BME280;17871;31.584;74.450;2023-07-08T01:56:34;97697.00;;;28.22;100.00
31239;BME280;17871;31.584;74.450;2023-07-08T01:59:05;97685.94;;;28.06;100.00
31239;BME280;17871;31.584;74.450;2023-07-08T02:01:37;97674.31;;;28.21;100.00
31239;BME280;17871;31.584;74.450;2023-07-08T02:04:08;97677.88;;;28.09;100.00
31239;BME280;17871;31.584;74.450;2023-07-08T02:06:40;97679.69;;;27.96;100.00
31239;BME280;17871;31.584;74.450;2023-07-08T02:09:14;97681.88;;;28.02;100.00
31239;BME280;17871;31.584;74.450;2023-07-08T02:11:45;97681.13;;;28.00;100.00
31239;BME280;17871;31.584;74.450;2023-07-08T02:14:17;97683.03;;;27.98;100.00
31239;BME280;17871;31.584;74.450;2023-07-08T02:16:48;97683.75;;;28.00;100.00
31239;BME280;17871;31.584;74.450;2023-07-08T02:19:19;97684.34;;;28.03;100.00
31239;BME280;17871;31.584;74.450;2023-07-08T02:21:52;97685.94;;;28.06;100.00
31239;BME280;17871;31.584;74.450;2023-07-08T02:24:24;97686.47;;;28.11;100.00
31239;BME280;17871;31.584;74.450;2023-07-08T02:26:55;97680.88;;;28.15;100.00
31239;BME280;17871;31.584;74.450;2023-07-08T02:29:27;97677.72;;;28.10;100.00
31239;BME280;17871;31.584;74.450;2023-07-08T02:31:59;97675.44;;;28.06;100.00
31239;BME280;17871;31.584;74.450;2023-07-08T02:34:30;97671.41;;;28.13;100.00
31239;BME280;17871;31.584;74.450;2023-07-08T02:37:04;97672.25;;;28.13;100.00
31239;BME280;17871;31.584;74.450;2023-07-08T02:39:35;97665.72;;;28.19;100.00
31239;BME280;17871;31.584;74.450;2023-07-08T02:42:07;97665.91;;;28.16;100.00
31239;BME280;17871;31.584;74.450;2023-07-08T02:44:38;97679.56;;;28.21;100.00
31239;BME280;17871;31.584;74.450;2023-07-08T02:47:10;97667.25;;;28.32;100.00
31239;BME280;17871;31.584;74.450;2023-07-08T02:49:41;97665.72;;;28.30;100.00
31239;BME280;17871;31.584;74.450;2023-07-08T02:52:12;97665.00;;;28.28;100.00
31239;BME280;17871;31.584;74.450;2023-07-08T02:54:44;97668.47;;;28.28;100.00
31239;BME280;17871;31.584;74.450;2023-07-08T02:57:15;97684.34;;;28.27;100.00
31239;BME280;17871;31.584;74.450;2023-07-08T02:59:46;97690.69;;;28.24;100.00
31239;BME280;17871;31.584;74.450;2023-07-08T03:02:16;97707.75;;;28.30;100.00
31239;BME280;17871;31.584;74.450;2023-07-08T03:04:46;97721.84;;;28.29;100.00
31239;BME280;17871;31.584;74.450;2023-07-08T03:07:15;97731.84;;;28.13;100.00
31239;BME280;17871;31.584;74.450;2023-07-08T03:09:44;97735.97;;;28.28;100.00
31239;BME280;17871;31.584;74.450;2023-07-08T03:12:13;97746.47;;;28.28;100.00
31239;BME280;17871;31.584;74.450;2023-07-08T03:14:42;97751.50;;;28.31;100.00
31239;BME280;17871;31.584;74.450;2023-07-08T03:17:12;97741.69;;;28.33;100.00
31239;BME280;17871;31.584;74.450;2023-07-08T03:19:42;97758.88;;;28.26;100.00
31239;BME280;17871;31.584;74.450;2023-07-08T03:22:11;97759.84;;;28.25;100.00
31239;BME280;17871;31.584;74.450;2023-07-08T03:24:40;97754.59;;;28.25;100.00
31239;BME280;17871;31.584;74.450;2023-07-08T03:27:18;97751.28;;;28.34;100.00
31239;BME280;17871;31.584;74.450;2023-07-08T03:29:49;97748.25;;;28.27;100.00
31239;BME280;17871;31.584;74.450;2023-07-08T03:32:18;97740.03;;;28.32;100.00
31239;BME280;17871;31.584;74.450;2023-07-08T03:34:47;97729.06;;;28.38;100.00
31239;BME280;17871;31.584;74.450;2023-07-08T03:37:16;97704.75;;;28.23;100.00
31239;BME280;17871;31.584;74.450;2023-07-08T03:39:45;97703.59;;;28.27;100.00
31239;BME280;17871;31.584;74.450;2023-07-08T03:42:14;97706.09;;;28.29;100.00
31239;BME280;17871;31.584;74.450;2023-07-08T03:44:43;97712.31;;;28.28;100.00
31239;BME280;17871;31.584;74.450;2023-07-08T03:47:12;97714.25;;;28.37;100.00
31239;BME280;17871;31.584;74.450;2023-07-08T03:49:41;97695.38;;;28.43;100.00
31239;BME280;17871;31.584;74.450;2023-07-08T03:52:15;97683.66;;;28.47;100.00
31239;BME280;17871;31.584;74.450;2023-07-08T03:54:45;97675.88;;;28.34;100.00
31239;BME280;17871;31.584;74.450;2023-07-08T03:57:17;97665.13;;;28.38;100.00
31239;BME280;17871;31.584;74.450;2023-07-08T03:59:47;97665.97;;;28.38;100.00
31239;BME280;17871;31.584;74.450;2023-07-08T04:02:17;97662.50;;;28.49;100.00
31239;BME280;17871;31.584;74.450;2023-07-08T04:04:45;97665.50;;;28.55;100.00
31239;BME280;17871;31.584;74.450;2023-07-08T04:07:15;97663.72;;;28.45;100.00
31239;BME280;17871;31.584;74.450;2023-07-08T04:09:44;97659.06;;;28.48;100.00
31239;BME280;17871;31.584;74.450;2023-07-08T04:12:18;97657.25;;;28.49;100.00
31239;BME280;17871;31.584;74.450;2023-07-08T04:14:47;97660.72;;;28.49;100.00
31239;BME280;17871;31.584;74.450;2023-07-08T04:17:18;97653.44;;;28.53;100.00
31239;BME280;17871;31.584;74.450;2023-07-08T04:19:48;97651.75;;;28.41;100.00
31239;BME280;17871;31.584;74.450;2023-07-08T04:22:17;97665.50;;;28.55;100.00
31239;BME280;17871;31.584;74.450;2023-07-08T04:24:46;97668.63;;;28.60;100.00
31239;BME280;17871;31.584;74.450;2023-07-08T04:27:16;97672.25;;;28.70;100.00
31239;BME280;17871;31.584;74.450;2023-07-08T04:29:46;97678.47;;;28.80;100.00
31239;BME280;17871;31.584;74.450;2023-07-08T04:32:15;97680.59;;;28.75;100.00
31239;BME280;17871;31.584;74.450;2023-07-08T04:34:44;97677.16;;;28.86;100.00
31239;BME280;17871;31.584;74.450;2023-07-08T04:37:13;97678.22;;;28.83;100.00
31239;BME280;17871;31.584;74.450;2023-07-08T04:39:42;97675.47;;;28.85;100.00
31239;BME280;17871;31.584;74.450;2023-07-08T04:42:12;97666.63;;;28.86;100.00
31239;BME280;17871;31.584;74.450;2023-07-08T04:44:46;97674.38;;;28.99;100.00
31239;BME280;17871;31.584;74.450;2023-07-08T04:47:18;97678.00;;;28.98;100.00
31239;BME280;17871;31.584;74.450;2023-07-08T04:49:48;97664.13;;;29.07;100.00
31239;BME280;17871;31.584;74.450;2023-07-08T04:52:18;97670.31;;;29.06;100.00
31239;BME280;17871;31.584;74.450;2023-07-08T04:54:46;97654.03;;;29.12;100.00
31239;BME280;17871;31.584;74.450;2023-07-08T04:57:15;97660.75;;;29.16;100.00
31239;BME280;17871;31.584;74.450;2023-07-08T04:59:45;97657.03;;;29.18;100.00
31239;BME280;17871;31.584;74.450;2023-07-08T05:02:14;97650.00;;;29.08;100.00
31239;BME280;17871;31.584;74.450;2023-07-08T05:04:43;97648.06;;;29.32;100.00
31239;BME280;17871;31.584;74.450;2023-07-08T05:07:12;97650.69;;;29.32;100.00
31239;BME280;17871;31.584;74.450;2023-07-08T05:09:41;97652.72;;;29.40;100.00
31239;BME280;17871;31.584;74.450;2023-07-08T05:12:10;97652.81;;;29.49;100.00
31239;BME280;17871;31.584;74.450;2023-07-08T05:14:39;97651.84;;;29.50;100.00
31239;BME280;17871;31.584;74.450;2023-07-08T05:17:08;97659.50;;;29.42;100.00
31239;BME280;17871;31.584;74.450;2023-07-08T05:19:37;97651.25;;;29.47;100.00
31239;BME280;17871;31.584;74.450;2023-07-08T05:22:13;97656.06;;;29.73;100.00
31239;BME280;17871;31.584;74.450;2023-07-08T05:24:48;97660.09;;;29.57;100.00
31239;BME280;17871;31.584;74.450;2023-07-08T05:27:24;97668.06;;;29.66;100.00
31239;BME280;17871;31.584;74.450;2023-07-08T05:29:53;97671.63;;;29.76;100.00
31239;BME280;17871;31.584;74.450;2023-07-08T05:32:22;97672.69;;;29.74;100.00
31239;BME280;17871;31.584;74.450;2023-07-08T05:34:53;97681.66;;;29.82;100.00
31239;BME280;17871;31.584;74.450;2023-07-08T05:37:22;97699.63;;;29.89;100.00
31239;BME280;17871;31.584;74.450;2023-07-08T05:39:54;97702.84;;;29.81;100.00
31239;BME280;17871;31.584;74.450;2023-07-08T05:42:25;97704.31;;;29.85;100.00
31239;BME280;17871;31.584;74.450;2023-07-08T05:44:54;97700.31;;;29.91;100.00
31239;BME280;17871;31.584;74.450;2023-07-08T05:47:23;97711.09;;;29.99;100.00
31239;BME280;17871;31.584;74.450;2023-07-08T05:49:52;97712.00;;;30.09;100.00
31239;BME280;17871;31.584;74.450;2023-07-08T05:52:21;97715.50;;;29.98;100.00
31239;BME280;17871;31.584;74.450;2023-07-08T05:54:49;97712.50;;;30.03;100.00
31239;BME280;17871;31.584;74.450;2023-07-08T05:57:18;97708.47;;;29.88;100.00
31239;BME280;17871;31.584;74.450;2023-07-08T05:59:47;97701.66;;;29.85;100.00
31239;BME280;17871;31.584;74.450;2023-07-08T06:02:17;97699.38;;;29.80;100.00
31239;BME280;17871;31.584;74.450;2023-07-08T06:04:50;97706.72;;;29.77;100.00
31239;BME280;17871;31.584;74.450;2023-07-08T06:07:19;97698.66;;;29.78;100.00
31239;BME280;17871;31.584;74.450;2023-07-08T06:09:48;97690.06;;;29.76;100.00
31239;BME280;17871;31.584;74.450;2023-07-08T06:12:16;97686.69;;;29.74;100.00
31239;BME280;17871;31.584;74.450;2023-07-08T06:14:45;97679.78;;;29.73;100.00
31239;BME280;17871;31.584;74.450;2023-07-08T06:17:16;97684.38;;;29.60;100.00
31239;BME280;17871;31.584;74.450;2023-07-08T06:19:45;97677.19;;;29.62;100.00
31239;BME280;17871;31.584;74.450;2023-07-08T06:22:15;97683.38;;;29.72;100.00
31239;BME280;17871;31.584;74.450;2023-07-08T06:25:04;97681.25;;;29.55;100.00
31239;BME280;17871;31.584;74.450;2023-07-08T06:27:33;97681.16;;;29.57;100.00
31239;BME280;17871;31.584;74.450;2023-07-08T06:30:02;97685.75;;;29.44;100.00
31239;BME280;17871;31.584;74.450;2023-07-08T06:32:31;97677.69;;;29.45;100.00
31239;BME280;17871;31.584;74.450;2023-07-08T06:35:00;97684.16;;;29.52;100.00
31239;BME280;17871;31.584;74.450;2023-07-08T06:37:29;97681.25;;;29.55;100.00
31239;BME280;17871;31.584;74.450;2023-07-08T06:39:58;97676.59;;;29.48;100.00
31239;BME280;17871;31.584;74.450;2023-07-08T06:42:27;97682.97;;;29.23;100.00
31239;BME280;17871;31.584;74.450;2023-07-08T06:45:08;97674.63;;;29.29;100.00
31239;BME280;17871;31.584;74.450;2023-07-08T06:47:38;97683.47;;;29.06;100.00
31239;BME280;17871;31.584;74.450;2023-07-08T06:50:07;97670.06;;;29.20;100.00
31239;BME280;17871;31.584;74.450;2023-07-08T06:52:36;97672.25;;;29.26;100.00
31239;BME280;17871;31.584;74.450;2023-07-08T06:55:07;97651.88;;;29.28;100.00
31239;BME280;17871;31.584;74.450;2023-07-08T06:57:37;97660.97;;;29.24;100.00
31239;BME280;17871;31.584;74.450;2023-07-08T07:00:08;97657.91;;;29.08;100.00
31239;BME280;17871;31.584;74.450;2023-07-08T07:02:38;97661.94;;;29.12;100.00
31239;BME280;17871;31.584;74.450;2023-07-08T07:05:07;97671.50;;;29.24;100.00
31239;BME280;17871;31.584;74.450;2023-07-08T07:07:36;97658.59;;;29.10;100.00
31239;BME280;17871;31.584;74.450;2023-07-08T07:10:06;97665.75;;;29.19;100.00
31239;BME280;17871;31.584;74.450;2023-07-08T07:12:37;97661.72;;;29.04;100.00
31239;BME280;17871;31.584;74.450;2023-07-08T07:15:06;97674.16;;;28.91;100.00
31239;BME280;17871;31.584;74.450;2023-07-08T07:17:35;97669.03;;;29.00;100.00
31239;BME280;17871;31.584;74.450;2023-07-08T07:20:04;97681.44;;;28.98;100.00
31239;BME280;17871;31.584;74.450;2023-07-08T07:22:35;97688.00;;;29.15;100.00
31239;BME280;17871;31.584;74.450;2023-07-08T07:25:04;97688.25;;;29.12;100.00
31239;BME280;17871;31.584;74.450;2023-07-08T07:27:34;97694.94;;;29.16;100.00
31239;BME280;17871;31.584;74.450;2023-07-08T07:30:04;97694.94;;;29.16;100.00
31239;BME280;17871;31.584;74.450;2023-07-08T07:32:33;97695.44;;;28.99;100.00
31239;BME280;17871;31.584;74.450;2023-07-08T07:35:05;97701.91;;;28.95;100.00
31239;BME280;17871;31.584;74.450;2023-07-08T07:37:34;97686.19;;;28.60;100.00
31239;BME280;17871;31.584;74.450;2023-07-08T07:40:03;97685.50;;;28.69;100.00
31239;BME280;17871;31.584;74.450;2023-07-08T07:42:33;97674.28;;;28.89;100.00
31239;BME280;17871;31.584;74.450;2023-07-08T07:45:02;97675.00;;;29.02;100.00
31239;BME280;17871;31.584;74.450;2023-07-08T07:47:32;97666.25;;;29.02;100.00
31239;BME280;17871;31.584;74.450;2023-07-08T07:50:04;97665.09;;;28.95;100.00
31239;BME280;17871;31.584;74.450;2023-07-08T07:52:34;97662.91;;;29.00;100.00
31239;BME280;17871;31.584;74.450;2023-07-08T07:55:03;97669.03;;;29.00;100.00
31239;BME280;17871;31.584;74.450;2023-07-08T07:57:32;97664.84;;;28.98;100.00
31239;BME280;17871;31.584;74.450;2023-07-08T08:00:01;97665.78;;;28.97;100.00
31239;BME280;17871;31.584;74.450;2023-07-08T08:02:39;97664.25;;;28.94;100.00
31239;BME280;17871;31.584;74.450;2023-07-08T08:05:09;97663.91;;;28.88;100.00
31239;BME280;17871;31.584;74.450;2023-07-08T08:07:38;97664.84;;;28.98;100.00
31239;BME280;17871;31.584;74.450;2023-07-08T08:10:09;97666.50;;;28.99;100.00
31239;BME280;17871;31.584;74.450;2023-07-08T08:12:38;97653.34;;;28.99;100.00
31239;BME280;17871;31.584;74.450;2023-07-08T08:15:20;97659.41;;;29.21;100.00
31239;BME280;17871;31.584;74.450;2023-07-08T08:17:50;97653.72;;;29.27;100.00
31239;BME280;17871;31.584;74.450;2023-07-08T08:20:23;97647.56;;;29.38;100.00
31239;BME280;17871;31.584;74.450;2023-07-08T08:22:53;97658.34;;;29.35;100.00
31239;BME280;17871;31.584;74.450;2023-07-08T08:25:24;97646.38;;;29.31;100.00
31239;BME280;17871;31.584;74.450;2023-07-08T08:27:53;97654.50;;;29.28;100.00
31239;BME280;17871;31.584;74.450;2023-07-08T08:30:22;97648.53;;;29.37;100.00
31239;BME280;17871;31.584;74.450;2023-07-08T08:32:51;97647.59;;;29.27;100.00
31239;BME280;17871;31.584;74.450;2023-07-08T08:35:20;97649.47;;;29.36;100.00
31239;BME280;17871;31.584;74.450;2023-07-08T08:37:49;97651.66;;;29.09;100.00
31239;BME280;17871;31.584;74.450;2023-07-08T08:40:18;97664.13;;;29.07;100.00
31239;BME280;17871;31.584;74.450;2023-07-08T08:48:19;97663.38;;;29.16;100.00
31239;BME280;17871;31.584;74.450;2023-07-08T08:50:55;97649.50;;;29.14;100.00
31239;BME280;17871;31.584;74.450;2023-07-08T08:53:29;97655.63;;;28.92;100.00
31239;BME280;17871;31.584;74.450;2023-07-08T08:56:15;97652.63;;;29.08;100.00
31239;BME280;17871;31.584;74.450;2023-07-08T08:58:58;97641.38;;;29.17;100.00
31239;BME280;17871;31.584;74.450;2023-07-08T09:01:30;97638.75;;;29.17;100.00
31239;BME280;17871;31.584;74.450;2023-07-08T09:04:13;97627.00;;;29.32;100.00
31239;BME280;17871;31.584;74.450;2023-07-08T09:06:46;97620.41;;;29.15;100.00
31239;BME280;17871;31.584;74.450;2023-07-08T09:09:41;97632.50;;;29.29;100.00
31239;BME280;17871;31.584;74.450;2023-07-08T09:12:22;97623.78;;;29.17;100.00
31239;BME280;17871;31.584;74.450;2023-07-08T09:14:53;97632.78;;;29.04;100.00
31239;BME280;17871;31.584;74.450;2023-07-08T09:17:29;97624.84;;;29.15;100.00
31239;BME280;17871;31.584;74.450;2023-07-08T09:20:22;97622.94;;;29.17;100.00
31239;BME280;17871;31.584;74.450;2023-07-08T09:23:24;97627.72;;;29.12;100.00
31239;BME280;17871;31.584;74.450;2023-07-08T09:26:31;97622.25;;;29.04;100.00
31239;BME280;17871;31.584;74.450;2023-07-08T09:28:52;97619.13;;;28.99;100.00
31239;BME280;17871;31.584;74.450;2023-07-08T09:31:25;97623.22;;;28.92;100.00
31239;BME280;17871;31.584;74.450;2023-07-08T09:34:06;97620.81;;;28.89;100.00
31239;BME280;17871;31.584;74.450;2023-07-08T09:36:40;97607.91;;;29.08;100.00
31239;BME280;17871;31.584;74.450;2023-07-08T09:39:15;97612.81;;;28.79;100.00
31239;BME280;17871;31.584;74.450;2023-07-08T09:41:46;97611.28;;;28.76;100.00
31239;BME280;17871;31.584;74.450;2023-07-08T09:46:48;97619.75;;;28.58;100.00
31239;BME280;17871;31.584;74.450;2023-07-08T09:49:23;97620.34;;;28.61;100.00
31239;BME280;17871;31.584;74.450;2023-07-08T09:51:52;97621.53;;;28.46;100.00
31239;BME280;17871;31.584;74.450;2023-07-08T09:54:23;97622.25;;;28.37;100.00
31239;BME280;17871;31.584;74.450;2023-07-08T09:57:00;97609.06;;;28.26;100.00
31239;BME280;17871;31.584;74.450;2023-07-08T09:59:36;97609.91;;;28.26;100.00
31239;BME280;17871;31.584;74.450;2023-07-08T10:07:40;97598.34;;;28.18;100.00
31239;BME280;17871;31.584;74.450;2023-07-08T10:10:34;97598.06;;;28.10;100.00
31239;BME280;17871;31.584;74.450;2023-07-08T10:13:12;97586.97;;;28.17;100.00
31239;BME280;17871;31.584;74.450;2023-07-08T10:15:48;97579.69;;;28.10;100.00
31239;BME280;17871;31.584;74.450;2023-07-08T10:18:28;97588.66;;;27.83;100.00
31239;BME280;17871;31.584;74.450;2023-07-08T10:21:07;97590.72;;;27.91;100.00
31239;BME280;17871;31.584;74.450;2023-07-08T10:26:29;97577.03;;;27.99;100.00
31239;BME280;17871;31.584;74.450;2023-07-08T10:31:46;97583.81;;;28.01;100.00
31239;BME280;17871;31.584;74.450;2023-07-08T10:37:24;97574.31;;;28.11;100.00
31239;BME280;17871;31.584;74.450;2023-07-08T10:45:39;97578.41;;;28.15;100.00
31239;BME280;17871;31.584;74.450;2023-07-08T10:56:50;97557.38;;;28.38;100.00
31239;BME280;17871;31.584;74.450;2023-07-08T11:04:43;97558.69;;;28.21;100.00
31239;BME280;17871;31.584;74.450;2023-07-08T11:07:39;97555.09;;;28.22;100.00
31239;BME280;17871;31.584;74.450;2023-07-08T11:10:45;97555.88;;;28.00;100.00
31239;BME280;17871;31.584;74.450;2023-07-08T11:13:19;97543.28;;;27.70;100.00
31239;BME280;17871;31.584;74.450;2023-07-08T11:15:54;97539.38;;;27.87;100.00
31239;BME280;17871;31.584;74.450;2023-07-08T11:19:17;97542.44;;;27.70;100.00
31239;BME280;17871;31.584;74.450;2023-07-08T11:21:24;97536.44;;;27.57;100.00
31239;BME280;17871;31.584;74.450;2023-07-08T11:26:58;97536.06;;;27.50;100.00
31239;BME280;17871;31.584;74.450;2023-07-08T11:29:44;97549.56;;;27.46;100.00
31239;BME280;17871;31.584;74.450;2023-07-08T11:32:18;97536.34;;;27.34;100.00
31239;BME280;17871;31.584;74.450;2023-07-08T11:34:50;97540.75;;;27.34;100.00
31239;BME280;17871;31.584;74.450;2023-07-08T11:37:21;97546.47;;;27.52;100.00
31239;BME280;17871;31.584;74.450;2023-07-08T11:43:03;97548.47;;;27.48;100.00
31239;BME280;17871;31.584;74.450;2023-07-08T11:45:43;97537.50;;;27.54;100.00
31239;BME280;17871;31.584;74.450;2023-07-08T11:48:16;97537.41;;;27.67;100.00
31239;BME280;17871;31.584;74.450;2023-07-08T11:50:47;97536.81;;;27.52;100.00
31239;BME280;17871;31.584;74.450;2023-07-08T11:56:00;97524.16;;;27.57;100.00
31239;BME280;17871;31.584;74.450;2023-07-08T12:03:51;97514.78;;;27.66;100.00
31239;BME280;17871;31.584;74.450;2023-07-08T12:09:25;97515.00;;;27.63;100.00
31239;BME280;17871;31.584;74.450;2023-07-08T12:12:19;97508.44;;;27.68;100.00
31239;BME280;17871;31.584;74.450;2023-07-08T12:14:53;97507.03;;;27.75;100.00
31239;BME280;17871;31.584;74.450;2023-07-08T12:17:28;97515.13;;;27.72;100.00
31239;BME280;17871;31.584;74.450;2023-07-08T12:20:01;97512.00;;;27.56;100.00
31239;BME280;17871;31.584;74.450;2023-07-08T12:22:32;97522.38;;;27.34;100.00
31239;BME280;17871;31.584;74.450;2023-07-08T12:25:02;97514.50;;;27.34;100.00
31239;BME280;17871;31.584;74.450;2023-07-08T12:27:33;97513.84;;;27.43;100.00
31239;BME280;17871;31.584;74.450;2023-07-08T12:30:02;97521.44;;;27.35;100.00
31239;BME280;17871;31.584;74.450;2023-07-08T12:32:32;97510.78;;;27.49;100.00
31239;BME280;17871;31.584;74.450;2023-07-08T12:35:01;97516.75;;;27.51;100.00
31239;BME280;17871;31.584;74.450;2023-07-08T12:37:32;97512.00;;;27.56;100.00
31239;BME280;17871;31.584;74.450;2023-07-08T12:40:01;97513.19;;;27.52;100.00
31239;BME280;17871;31.584;74.450;2023-07-08T12:42:34;97517.44;;;27.53;100.00
31239;BME280;17871;31.584;74.450;2023-07-08T12:45:13;97517.41;;;27.66;100.00
31239;BME280;17871;31.584;74.450;2023-07-08T12:47:44;97525.09;;;27.45;100.00
31239;BME280;17871;31.584;74.450;2023-07-08T12:50:13;97516.81;;;27.39;100.00
31239;BME280;17871;31.584;74.450;2023-07-08T12:52:44;97522.75;;;27.29;100.00
31239;BME280;17871;31.584;74.450;2023-07-08T12:55:15;97527.25;;;27.51;100.00
31239;BME280;17871;31.584;74.450;2023-07-08T12:57:49;97524.75;;;27.50;100.00
31239;BME280;17871;31.584;74.450;2023-07-08T13:00:26;97534.19;;;27.52;100.00
31239;BME280;17871;31.584;74.450;2023-07-08T13:03:00;97526.16;;;27.54;100.00
31239;BME280;17871;31.584;74.450;2023-07-08T13:05:32;97535.50;;;27.34;100.00
31239;BME280;17871;31.584;74.450;2023-07-08T13:08:02;97543.78;;;27.17;100.00
31239;BME280;17871;31.584;74.450;2023-07-08T13:10:34;97533.84;;;27.33;100.00
31239;BME280;17871;31.584;74.450;2023-07-08T13:13:06;97543.50;;;27.32;100.00
31239;BME280;17871;31.584;74.450;2023-07-08T13:15:39;97536.53;;;27.44;100.00
31239;BME280;17871;31.584;74.450;2023-07-08T13:20:49;97546.09;;;27.45;100.00
31239;BME280;17871;31.584;74.450;2023-07-08T13:23:22;97550.38;;;27.46;100.00
31239;BME280;17871;31.584;74.450;2023-07-08T13:25:53;97557.34;;;27.34;100.00
31239;BME280;17871;31.584;74.450;2023-07-08T13:28:36;97556.56;;;27.21;100.00
31239;BME280;17871;31.584;74.450;2023-07-08T13:31:17;97565.50;;;27.43;100.00
31239;BME280;17871;31.584;74.450;2023-07-08T13:33:53;97563.88;;;27.29;100.00
31239;BME280;17871;31.584;74.450;2023-07-08T13:36:34;97564.13;;;27.37;100.00
31239;BME280;17871;31.584;74.450;2023-07-08T13:39:12;97564.44;;;27.45;100.00
31239;BME280;17871;31.584;74.450;2023-07-08T13:41:44;97568.91;;;27.32;100.00
31239;BME280;17871;31.584;74.450;2023-07-08T13:44:14;97561.47;;;27.26;100.00
31239;BME280;17871;31.584;74.450;2023-07-08T13:49:40;97565.50;;;27.19;100.00
31239;BME280;17871;31.584;74.450;2023-07-08T13:54:49;97559.03;;;27.36;100.00
31239;BME280;17871;31.584;74.450;2023-07-08T13:57:21;97561.25;;;27.29;100.00
31239;BME280;17871;31.584;74.450;2023-07-08T13:59:51;97566.13;;;27.22;100.00
31239;BME280;17871;31.584;74.450;2023-07-08T14:02:23;97566.28;;;27.32;100.00
31239;BME280;17871;31.584;74.450;2023-07-08T14:04:54;97567.22;;;27.31;100.00
31239;BME280;17871;31.584;74.450;2023-07-08T14:07:28;97569.16;;;27.40;100.00
31239;BME280;17871;31.584;74.450;2023-07-08T14:09:57;97563.88;;;27.29;100.00
31239;BME280;17871;31.584;74.450;2023-07-08T14:12:27;97567.59;;;27.38;100.00
31239;BME280;17871;31.584;74.450;2023-07-08T14:14:56;97574.75;;;27.36;100.00
31239;BME280;17871;31.584;74.450;2023-07-08T14:17:26;97572.00;;;27.37;100.00